createdAt,value
2023-02-14T00:05:49.412Z,1038.69
2023-02-14T00:15:54.766Z,1038.61
2023-02-14T00:26:00.051Z,1038.64
2023-02-14T00:36:05.023Z,1038.60
2023-02-14T00:46:10.381Z,1038.59
2023-02-14T00:56:15.418Z,1038.53
2023-02-14T01:06:20.832Z,1038.53
2023-02-14T01:16:25.985Z,1038.45
2023-02-14T01:26:31.567Z,1038.44
2023-02-14T01:36:36.879Z,1038.36
2023-02-14T01:46:41.851Z,1038.21
2023-02-14T01:56:47.001Z,1038.21
2023-02-14T02:06:52.355Z,1038.15
2023-02-14T02:16:57.337Z,1038.22
2023-02-14T02:27:02.674Z,1038.20
2023-02-14T02:37:07.824Z,1038.23
2023-02-14T02:47:12.556Z,1038.24
2023-02-14T02:57:17.625Z,1038.22
2023-02-14T03:07:22.898Z,1038.22
2023-02-14T03:17:28.218Z,1038.24
2023-02-14T03:27:33.644Z,1038.12
2023-02-14T03:37:38.991Z,1038.14
2023-02-14T03:47:43.827Z,1038.14
2023-02-14T03:57:49.056Z,1038.16
2023-02-14T04:07:53.898Z,1038.16
2023-02-14T04:17:59.115Z,1038.07
2023-02-14T04:28:05.650Z,1038.08
2023-02-14T04:38:10.922Z,1037.99
2023-02-14T04:48:16.650Z,1037.94
2023-02-14T04:58:21.867Z,1037.85
2023-02-14T05:08:27.164Z,1037.83
2023-02-14T05:18:32.306Z,1037.81
2023-02-14T05:28:37.459Z,1037.75
2023-02-14T05:38:42.605Z,1037.75
2023-02-14T05:48:47.964Z,1037.72
2023-02-14T05:58:53.122Z,1037.73
2023-02-14T06:08:59.039Z,1037.72
2023-02-14T06:19:04.255Z,1037.84
2023-02-14T06:29:09.488Z,1037.81
2023-02-14T06:39:14.682Z,1037.89
2023-02-14T06:49:19.666Z,1037.82
2023-02-14T06:59:24.720Z,1037.77
2023-02-14T07:09:30.555Z,1037.80
2023-02-14T07:19:35.894Z,1037.75
2023-02-14T07:29:40.924Z,1037.81
2023-02-14T07:39:46.493Z,1037.78
2023-02-14T07:49:51.846Z,1037.74
2023-02-14T07:59:57.147Z,1037.73
2023-02-14T08:10:02.213Z,1037.81
2023-02-14T08:20:07.514Z,1037.91
2023-02-14T08:30:12.766Z,1038.04
2023-02-14T08:40:18.509Z,1038.08
2023-02-14T08:50:23.449Z,1038.12
2023-02-14T09:00:28.829Z,1038.15
2023-02-14T09:10:33.965Z,1038.15
2023-02-14T09:20:39.238Z,1038.20
2023-02-14T09:30:44.738Z,1038.19
2023-02-14T09:40:49.956Z,1038.13
2023-02-14T09:50:55.201Z,1038.14
2023-02-14T10:01:01.248Z,1038.19
2023-02-14T10:11:06.994Z,1038.19
2023-02-14T10:21:12.026Z,1038.09
2023-02-14T10:31:18.056Z,1038.12
2023-02-14T10:41:23.541Z,1037.98
2023-02-14T10:51:29.194Z,1037.98
2023-02-14T11:01:34.521Z,1037.97
2023-02-14T11:11:39.808Z,1037.96
2023-02-14T11:21:44.998Z,1037.83
2023-02-14T11:31:50.849Z,1037.81
2023-02-14T11:41:56.249Z,1037.74
2023-02-14T11:52:01.687Z,1037.66
2023-02-14T12:02:07.183Z,1037.55
2023-02-14T12:12:12.750Z,1037.39
2023-02-14T12:22:18.368Z,1037.29
2023-02-14T12:32:23.126Z,1037.17
2023-02-14T12:42:28.497Z,1036.98
2023-02-14T12:52:33.830Z,1036.83
2023-02-14T13:02:39.572Z,1036.77
2023-02-14T13:12:44.908Z,1036.68
2023-02-14T13:22:50.281Z,1036.59
2023-02-14T13:32:56.286Z,1036.58
2023-02-14T13:43:01.391Z,1036.48
2023-02-14T13:53:06.901Z,1036.50
2023-02-14T14:03:12.163Z,1036.44
2023-02-14T14:13:17.492Z,1036.40
2023-02-14T14:23:23.055Z,1036.36
2023-02-14T14:33:28.166Z,1036.24
2023-02-14T14:43:33.169Z,1036.26
2023-02-14T14:53:38.687Z,1036.19
2023-02-14T15:03:44.034Z,1036.17
2023-02-14T15:13:49.353Z,1036.07
2023-02-14T15:23:54.495Z,1035.98
2023-02-14T15:33:59.805Z,1035.93
2023-02-14T15:44:05.105Z,1035.84
2023-02-14T15:54:10.446Z,1035.68
2023-02-14T16:04:15.584Z,1035.60
2023-02-14T16:14:21.053Z,1035.60
2023-02-14T16:24:26.611Z,1035.51
2023-02-14T16:34:31.719Z,1035.63
2023-02-14T16:44:37.059Z,1035.57
2023-02-14T16:54:42.201Z,1035.64
2023-02-14T17:04:48.064Z,1035.61
2023-02-14T17:14:53.441Z,1035.66
2023-02-14T17:24:58.979Z,1035.60
2023-02-14T17:35:03.840Z,1035.58
2023-02-14T17:45:09.018Z,1035.56
2023-02-14T17:55:14.471Z,1035.48
2023-02-14T18:05:19.718Z,1035.37
2023-02-14T18:15:25.077Z,1035.29
2023-02-14T18:25:30.158Z,1035.23
2023-02-14T18:35:35.976Z,1035.05
2023-02-14T18:45:41.484Z,1034.98
2023-02-14T18:55:46.976Z,1034.97
2023-02-14T19:05:52.020Z,1034.88
2023-02-14T19:15:57.254Z,1034.75
2023-02-14T19:26:03.777Z,1034.64
2023-02-14T19:36:10.859Z,1034.64
2023-02-14T19:46:16.122Z,1034.71
2023-02-14T19:56:22.062Z,1034.63
2023-02-14T20:06:27.161Z,1034.60
2023-02-14T20:16:32.329Z,1034.64
2023-02-14T20:26:37.801Z,1034.42
2023-02-14T20:36:43.471Z,1034.38
2023-02-14T20:46:48.836Z,1034.15
2023-02-14T20:56:54.131Z,1034.16
2023-02-14T21:06:59.388Z,1034.15
2023-02-14T21:17:04.988Z,1034.07
2023-02-14T21:27:10.469Z,1033.99
2023-02-14T21:37:18.004Z,1034.00
2023-02-14T21:47:23.648Z,1033.88
2023-02-14T21:57:29.004Z,1033.80
2023-02-14T22:07:34.618Z,1033.81
2023-02-14T22:17:40.147Z,1033.75
2023-02-14T22:27:46.044Z,1033.66
2023-02-14T22:37:51.223Z,1033.56
2023-02-14T22:47:56.094Z,1033.48
2023-02-14T22:58:01.533Z,1033.41
2023-02-14T23:08:07.161Z,1033.31
2023-02-14T23:18:12.679Z,1033.22
2023-02-14T23:28:18.252Z,1033.12
2023-02-14T23:38:24.070Z,1033.15
2023-02-14T23:48:29.193Z,1033.07
2023-02-14T23:58:34.576Z,1033.09
